sensor_id;sensor_type;location;lat;lon;timestamp;P1;durP1;ratioP1;P2;durP2;ratioP2
18290;SDS011;9271;48.590;8.866;2023-06-14T00:01:34;4.50;;;3.70;;
18290;SDS011;9271;48.590;8.866;2023-06-14T00:04:00;3.87;;;3.57;;
18290;SDS011;9271;48.590;8.866;2023-06-14T00:06:28;3.30;;;3.00;;
18290;SDS011;9271;48.590;8.866;2023-06-14T00:08:55;3.83;;;3.40;;
18290;SDS011;9271;48.590;8.866;2023-06-14T00:11:22;4.67;;;3.40;;
18290;SDS011;9271;48.590;8.866;2023-06-14T00:13:48;3.83;;;3.33;;
18290;SDS011;9271;48.590;8.866;2023-06-14T00:16:16;4.10;;;3.40;;
18290;SDS011;9271;48.590;8.866;2023-06-14T00:18:44;3.87;;;3.57;;
18290;SDS011;9271;48.590;8.866;2023-06-14T00:21:11;3.67;;;3.30;;
18290;SDS011;9271;48.590;8.866;2023-06-14T00:23:37;7.23;;;3.63;;
18290;SDS011;9271;48.590;8.866;2023-06-14T00:26:04;4.20;;;3.80;;
18290;SDS011;9271;48.590;8.866;2023-06-14T00:28:31;6.00;;;3.53;;
18290;SDS011;9271;48.590;8.866;2023-06-14T00:30:57;4.10;;;3.70;;
18290;SDS011;9271;48.590;8.866;2023-06-14T00:33:25;4.23;;;3.70;;
18290;SDS011;9271;48.590;8.866;2023-06-14T00:35:52;4.13;;;3.17;;
18290;SDS011;9271;48.590;8.866;2023-06-14T00:38:19;3.70;;;3.33;;
18290;SDS011;9271;48.590;8.866;2023-06-14T00:40:46;3.70;;;3.40;;
18290;SDS011;9271;48.590;8.866;2023-06-14T00:43:12;4.80;;;3.70;;
18290;SDS011;9271;48.590;8.866;2023-06-14T00:45:39;4.53;;;3.80;;
18290;SDS011;9271;48.590;8.866;2023-06-14T00:48:06;3.60;;;3.30;;
18290;SDS011;9271;48.590;8.866;2023-06-14T00:50:35;4.43;;;3.57;;
18290;SDS011;9271;48.590;8.866;2023-06-14T00:53:03;4.23;;;3.60;;
18290;SDS011;9271;48.590;8.866;2023-06-14T00:55:29;5.37;;;3.40;;
18290;SDS011;9271;48.590;8.866;2023-06-14T00:57:57;5.40;;;3.50;;
18290;SDS011;9271;48.590;8.866;2023-06-14T01:00:25;3.93;;;3.53;;
18290;SDS011;9271;48.590;8.866;2023-06-14T01:02:53;4.53;;;3.23;;
18290;SDS011;9271;48.590;8.866;2023-06-14T01:05:21;4.37;;;3.77;;
18290;SDS011;9271;48.590;8.866;2023-06-14T01:07:54;3.77;;;3.43;;
18290;SDS011;9271;48.590;8.866;2023-06-14T01:10:32;4.10;;;3.57;;
18290;SDS011;9271;48.590;8.866;2023-06-14T01:13:07;4.73;;;3.40;;
18290;SDS011;9271;48.590;8.866;2023-06-14T01:15:39;4.00;;;3.70;;
18290;SDS011;9271;48.590;8.866;2023-06-14T01:18:09;6.97;;;3.80;;
18290;SDS011;9271;48.590;8.866;2023-06-14T01:20:42;3.73;;;3.43;;
18290;SDS011;9271;48.590;8.866;2023-06-14T01:23:13;5.40;;;3.63;;
18290;SDS011;9271;48.590;8.866;2023-06-14T01:25:40;5.13;;;3.53;;
18290;SDS011;9271;48.590;8.866;2023-06-14T01:28:09;3.60;;;3.20;;
18290;SDS011;9271;48.590;8.866;2023-06-14T01:30:38;4.10;;;3.70;;
18290;SDS011;9271;48.590;8.866;2023-06-14T01:33:07;4.07;;;3.40;;
18290;SDS011;9271;48.590;8.866;2023-06-14T01:35:34;3.63;;;3.33;;
18290;SDS011;9271;48.590;8.866;2023-06-14T01:38:01;4.07;;;3.67;;
18290;SDS011;9271;48.590;8.866;2023-06-14T01:40:31;4.80;;;3.53;;
18290;SDS011;9271;48.590;8.866;2023-06-14T01:42:59;5.53;;;4.20;;
18290;SDS011;9271;48.590;8.866;2023-06-14T01:45:26;5.40;;;3.57;;
18290;SDS011;9271;48.590;8.866;2023-06-14T01:47:54;7.47;;;4.07;;
18290;SDS011;9271;48.590;8.866;2023-06-14T01:50:21;5.63;;;3.63;;
18290;SDS011;9271;48.590;8.866;2023-06-14T01:52:48;3.60;;;3.30;;
18290;SDS011;9271;48.590;8.866;2023-06-14T01:55:15;4.47;;;3.37;;
18290;SDS011;9271;48.590;8.866;2023-06-14T01:57:44;4.20;;;3.80;;
18290;SDS011;9271;48.590;8.866;2023-06-14T02:00:11;3.97;;;3.60;;
18290;SDS011;9271;48.590;8.866;2023-06-14T02:02:39;6.30;;;3.60;;
18290;SDS011;9271;48.590;8.866;2023-06-14T02:05:06;5.63;;;4.10;;
18290;SDS011;9271;48.590;8.866;2023-06-14T02:07:34;4.80;;;3.70;;
18290;SDS011;9271;48.590;8.866;2023-06-14T02:10:00;4.00;;;3.57;;
18290;SDS011;9271;48.590;8.866;2023-06-14T02:12:27;4.37;;;3.47;;
18290;SDS011;9271;48.590;8.866;2023-06-14T02:14:55;4.57;;;3.40;;
18290;SDS011;9271;48.590;8.866;2023-06-14T02:17:22;4.57;;;3.70;;
18290;SDS011;9271;48.590;8.866;2023-06-14T02:19:49;4.53;;;3.93;;
18290;SDS011;9271;48.590;8.866;2023-06-14T02:22:16;3.63;;;3.33;;
18290;SDS011;9271;48.590;8.866;2023-06-14T02:24:43;5.57;;;3.70;;
18290;SDS011;9271;48.590;8.866;2023-06-14T02:27:10;4.90;;;4.07;;
18290;SDS011;9271;48.590;8.866;2023-06-14T02:29:37;5.37;;;3.77;;
18290;SDS011;9271;48.590;8.866;2023-06-14T02:32:05;3.70;;;3.37;;
18290;SDS011;9271;48.590;8.866;2023-06-14T02:34:32;4.43;;;3.77;;
18290;SDS011;9271;48.590;8.866;2023-06-14T02:36:59;5.17;;;3.63;;
18290;SDS011;9271;48.590;8.866;2023-06-14T02:39:27;4.70;;;3.73;;
18290;SDS011;9271;48.590;8.866;2023-06-14T02:41:54;4.47;;;3.80;;
18290;SDS011;9271;48.590;8.866;2023-06-14T02:44:23;3.83;;;3.43;;
18290;SDS011;9271;48.590;8.866;2023-06-14T02:46:51;4.57;;;3.73;;
18290;SDS011;9271;48.590;8.866;2023-06-14T02:49:19;4.30;;;3.67;;
18290;SDS011;9271;48.590;8.866;2023-06-14T02:51:45;4.20;;;3.80;;
18290;SDS011;9271;48.590;8.866;2023-06-14T02:54:12;4.40;;;3.83;;
18290;SDS011;9271;48.590;8.866;2023-06-14T02:56:39;6.07;;;3.60;;
18290;SDS011;9271;48.590;8.866;2023-06-14T02:59:05;4.03;;;3.63;;
18290;SDS011;9271;48.590;8.866;2023-06-14T03:01:34;3.57;;;3.30;;
18290;SDS011;9271;48.590;8.866;2023-06-14T03:04:00;4.30;;;3.90;;
18290;SDS011;9271;48.590;8.866;2023-06-14T03:06:29;5.07;;;3.90;;
18290;SDS011;9271;48.590;8.866;2023-06-14T03:08:56;3.83;;;3.43;;
18290;SDS011;9271;48.590;8.866;2023-06-14T03:11:24;10.03;;;4.03;;
18290;SDS011;9271;48.590;8.866;2023-06-14T03:13:51;4.97;;;3.90;;
18290;SDS011;9271;48.590;8.866;2023-06-14T03:16:18;4.00;;;3.70;;
18290;SDS011;9271;48.590;8.866;2023-06-14T03:18:46;6.00;;;3.80;;
18290;SDS011;9271;48.590;8.866;2023-06-14T03:21:13;4.43;;;3.63;;
18290;SDS011;9271;48.590;8.866;2023-06-14T03:23:42;4.13;;;3.73;;
18290;SDS011;9271;48.590;8.866;2023-06-14T03:26:09;4.97;;;3.83;;
18290;SDS011;9271;48.590;8.866;2023-06-14T03:28:37;9.03;;;4.00;;
18290;SDS011;9271;48.590;8.866;2023-06-14T03:31:04;5.63;;;3.70;;
18290;SDS011;9271;48.590;8.866;2023-06-14T03:33:31;4.43;;;3.93;;
18290;SDS011;9271;48.590;8.866;2023-06-14T03:35:58;4.23;;;3.83;;
18290;SDS011;9271;48.590;8.866;2023-06-14T03:38:24;4.57;;;3.83;;
18290;SDS011;9271;48.590;8.866;2023-06-14T03:40:52;4.33;;;3.93;;
18290;SDS011;9271;48.590;8.866;2023-06-14T03:43:19;5.30;;;3.70;;
18290;SDS011;9271;48.590;8.866;2023-06-14T03:45:46;5.37;;;3.50;;
18290;SDS011;9271;48.590;8.866;2023-06-14T03:48:12;4.50;;;4.07;;
18290;SDS011;9271;48.590;8.866;2023-06-14T03:50:39;4.20;;;3.77;;
18290;SDS011;9271;48.590;8.866;2023-06-14T03:53:08;3.93;;;3.63;;
18290;SDS011;9271;48.590;8.866;2023-06-14T03:55:34;4.60;;;4.20;;
18290;SDS011;9271;48.590;8.866;2023-06-14T03:58:04;6.33;;;4.00;;
18290;SDS011;9271;48.590;8.866;2023-06-14T04:00:31;3.83;;;3.53;;
18290;SDS011;9271;48.590;8.866;2023-06-14T04:02:58;7.10;;;4.20;;
18290;SDS011;9271;48.590;8.866;2023-06-14T04:05:24;5.37;;;3.97;;
18290;SDS011;9271;48.590;8.866;2023-06-14T04:07:52;6.07;;;4.33;;
18290;SDS011;9271;48.590;8.866;2023-06-14T04:10:20;6.40;;;4.13;;
18290;SDS011;9271;48.590;8.866;2023-06-14T04:12:47;7.00;;;4.00;;
18290;SDS011;9271;48.590;8.866;2023-06-14T04:15:15;7.33;;;4.07;;
18290;SDS011;9271;48.590;8.866;2023-06-14T04:17:42;4.30;;;3.90;;
18290;SDS011;9271;48.590;8.866;2023-06-14T04:20:08;4.87;;;4.03;;
18290;SDS011;9271;48.590;8.866;2023-06-14T04:22:36;4.07;;;3.73;;
18290;SDS011;9271;48.590;8.866;2023-06-14T04:25:02;4.53;;;4.07;;
18290;SDS011;9271;48.590;8.866;2023-06-14T04:27:31;5.50;;;4.10;;
18290;SDS011;9271;48.590;8.866;2023-06-14T04:30:01;5.10;;;3.70;;
18290;SDS011;9271;48.590;8.866;2023-06-14T04:32:30;5.57;;;4.30;;
18290;SDS011;9271;48.590;8.866;2023-06-14T04:34:58;4.13;;;3.73;;
18290;SDS011;9271;48.590;8.866;2023-06-14T04:37:27;6.03;;;3.70;;
18290;SDS011;9271;48.590;8.866;2023-06-14T04:39:54;4.43;;;4.03;;
18290;SDS011;9271;48.590;8.866;2023-06-14T04:42:21;5.13;;;4.27;;
18290;SDS011;9271;48.590;8.866;2023-06-14T04:44:50;5.63;;;3.87;;
18290;SDS011;9271;48.590;8.866;2023-06-14T04:47:19;4.87;;;4.10;;
18290;SDS011;9271;48.590;8.866;2023-06-14T04:49:47;4.47;;;4.07;;
18290;SDS011;9271;48.590;8.866;2023-06-14T04:52:15;4.30;;;3.90;;
18290;SDS011;9271;48.590;8.866;2023-06-14T04:54:42;4.30;;;3.90;;
18290;SDS011;9271;48.590;8.866;2023-06-14T04:57:09;4.00;;;3.60;;
18290;SDS011;9271;48.590;8.866;2023-06-14T04:59:38;4.43;;;4.03;;
18290;SDS011;9271;48.590;8.866;2023-06-14T05:02:05;5.43;;;4.03;;
18290;SDS011;9271;48.590;8.866;2023-06-14T05:04:32;6.77;;;4.10;;
18290;SDS011;9271;48.590;8.866;2023-06-14T05:07:00;9.37;;;4.00;;
18290;SDS011;9271;48.590;8.866;2023-06-14T05:09:27;7.23;;;4.50;;
18290;SDS011;9271;48.590;8.866;2023-06-14T05:11:54;5.60;;;4.40;;
18290;SDS011;9271;48.590;8.866;2023-06-14T05:14:21;7.13;;;4.23;;
18290;SDS011;9271;48.590;8.866;2023-06-14T05:16:48;4.93;;;4.00;;
18290;SDS011;9271;48.590;8.866;2023-06-14T05:19:15;3.97;;;3.67;;
18290;SDS011;9271;48.590;8.866;2023-06-14T05:21:43;5.47;;;4.60;;
18290;SDS011;9271;48.590;8.866;2023-06-14T05:24:11;6.73;;;4.37;;
18290;SDS011;9271;48.590;8.866;2023-06-14T05:26:37;4.93;;;4.13;;
18290;SDS011;9271;48.590;8.866;2023-06-14T05:29:04;7.80;;;4.33;;
18290;SDS011;9271;48.590;8.866;2023-06-14T05:31:31;5.13;;;4.63;;
18290;SDS011;9271;48.590;8.866;2023-06-14T05:33:57;4.83;;;4.40;;
18290;SDS011;9271;48.590;8.866;2023-06-14T05:36:24;4.90;;;4.50;;
18290;SDS011;9271;48.590;8.866;2023-06-14T05:38:52;4.60;;;4.30;;
18290;SDS011;9271;48.590;8.866;2023-06-14T05:41:24;5.17;;;4.67;;
18290;SDS011;9271;48.590;8.866;2023-06-14T05:43:51;5.23;;;4.67;;
18290;SDS011;9271;48.590;8.866;2023-06-14T05:46:17;5.03;;;4.50;;
18290;SDS011;9271;48.590;8.866;2023-06-14T05:48:47;5.50;;;4.50;;
18290;SDS011;9271;48.590;8.866;2023-06-14T05:51:13;5.60;;;4.87;;
18290;SDS011;9271;48.590;8.866;2023-06-14T05:53:43;5.20;;;4.70;;
18290;SDS011;9271;48.590;8.866;2023-06-14T05:56:10;5.00;;;4.50;;
18290;SDS011;9271;48.590;8.866;2023-06-14T05:58:38;8.33;;;4.43;;
18290;SDS011;9271;48.590;8.866;2023-06-14T06:01:05;6.90;;;4.37;;
18290;SDS011;9271;48.590;8.866;2023-06-14T06:03:32;5.70;;;4.30;;
18290;SDS011;9271;48.590;8.866;2023-06-14T06:05:59;4.83;;;4.33;;
18290;SDS011;9271;48.590;8.866;2023-06-14T06:08:25;6.30;;;4.63;;
18290;SDS011;9271;48.590;8.866;2023-06-14T06:10:52;4.70;;;4.30;;
18290;SDS011;9271;48.590;8.866;2023-06-14T06:13:19;4.50;;;4.10;;
18290;SDS011;9271;48.590;8.866;2023-06-14T06:15:47;4.77;;;4.23;;
18290;SDS011;9271;48.590;8.866;2023-06-14T06:18:13;7.87;;;4.00;;
18290;SDS011;9271;48.590;8.866;2023-06-14T06:20:40;11.03;;;4.30;;
18290;SDS011;9271;48.590;8.866;2023-06-14T06:23:07;6.60;;;3.97;;
18290;SDS011;9271;48.590;8.866;2023-06-14T06:25:34;9.10;;;4.27;;
18290;SDS011;9271;48.590;8.866;2023-06-14T06:28:02;5.37;;;4.07;;
18290;SDS011;9271;48.590;8.866;2023-06-14T06:30:28;7.67;;;3.87;;
18290;SDS011;9271;48.590;8.866;2023-06-14T06:32:57;5.70;;;4.00;;
18290;SDS011;9271;48.590;8.866;2023-06-14T06:35:24;7.60;;;4.20;;
18290;SDS011;9271;48.590;8.866;2023-06-14T06:37:50;21.47;;;4.43;;
18290;SDS011;9271;48.590;8.866;2023-06-14T06:40:17;5.23;;;3.73;;
18290;SDS011;9271;48.590;8.866;2023-06-14T06:42:44;6.60;;;3.80;;
18290;SDS011;9271;48.590;8.866;2023-06-14T06:45:11;6.33;;;3.90;;
18290;SDS011;9271;48.590;8.866;2023-06-14T06:47:38;11.93;;;4.43;;
18290;SDS011;9271;48.590;8.866;2023-06-14T06:50:06;11.33;;;4.30;;
18290;SDS011;9271;48.590;8.866;2023-06-14T06:52:33;8.83;;;3.60;;
18290;SDS011;9271;48.590;8.866;2023-06-14T06:55:00;11.10;;;3.97;;
18290;SDS011;9271;48.590;8.866;2023-06-14T06:57:28;9.43;;;4.00;;
18290;SDS011;9271;48.590;8.866;2023-06-14T06:59:55;6.60;;;4.00;;
18290;SDS011;9271;48.590;8.866;2023-06-14T07:02:21;7.57;;;3.63;;
18290;SDS011;9271;48.590;8.866;2023-06-14T07:04:48;5.20;;;4.00;;
18290;SDS011;9271;48.590;8.866;2023-06-14T07:07:17;5.43;;;4.00;;
18290;SDS011;9271;48.590;8.866;2023-06-14T07:09:43;9.50;;;4.10;;
18290;SDS011;9271;48.590;8.866;2023-06-14T07:12:11;4.50;;;3.67;;
18290;SDS011;9271;48.590;8.866;2023-06-14T07:14:37;8.70;;;4.13;;
18290;SDS011;9271;48.590;8.866;2023-06-14T07:17:04;8.73;;;3.80;;
18290;SDS011;9271;48.590;8.866;2023-06-14T07:19:31;11.00;;;4.37;;
18290;SDS011;9271;48.590;8.866;2023-06-14T07:21:58;7.63;;;4.20;;
18290;SDS011;9271;48.590;8.866;2023-06-14T07:24:26;8.60;;;3.90;;
18290;SDS011;9271;48.590;8.866;2023-06-14T07:26:54;5.60;;;3.97;;
18290;SDS011;9271;48.590;8.866;2023-06-14T07:29:21;6.10;;;3.97;;
18290;SDS011;9271;48.590;8.866;2023-06-14T07:31:47;8.83;;;3.90;;
18290;SDS011;9271;48.590;8.866;2023-06-14T07:34:14;7.50;;;3.87;;
18290;SDS011;9271;48.590;8.866;2023-06-14T07:36:41;7.63;;;3.80;;
18290;SDS011;9271;48.590;8.866;2023-06-14T07:39:09;8.70;;;3.50;;
18290;SDS011;9271;48.590;8.866;2023-06-14T07:41:37;8.57;;;3.67;;
18290;SDS011;9271;48.590;8.866;2023-06-14T07:44:04;11.57;;;4.00;;
18290;SDS011;9271;48.590;8.866;2023-06-14T07:46:30;13.97;;;3.97;;
18290;SDS011;9271;48.590;8.866;2023-06-14T07:48:59;4.87;;;3.87;;
18290;SDS011;9271;48.590;8.866;2023-06-14T07:51:26;10.07;;;4.30;;
18290;SDS011;9271;48.590;8.866;2023-06-14T07:53:52;5.27;;;3.43;;
18290;SDS011;9271;48.590;8.866;2023-06-14T07:56:20;9.87;;;3.90;;
18290;SDS011;9271;48.590;8.866;2023-06-14T07:58:47;8.80;;;4.10;;
18290;SDS011;9271;48.590;8.866;2023-06-14T08:01:14;4.10;;;3.70;;
18290;SDS011;9271;48.590;8.866;2023-06-14T08:03:42;6.33;;;3.80;;
18290;SDS011;9271;48.590;8.866;2023-06-14T08:06:08;6.10;;;3.40;;
18290;SDS011;9271;48.590;8.866;2023-06-14T08:08:35;8.50;;;4.03;;
18290;SDS011;9271;48.590;8.866;2023-06-14T08:11:02;7.17;;;3.77;;
18290;SDS011;9271;48.590;8.866;2023-06-14T08:13:29;5.67;;;3.33;;
18290;SDS011;9271;48.590;8.866;2023-06-14T08:15:57;4.13;;;3.50;;
18290;SDS011;9271;48.590;8.866;2023-06-14T08:18:25;8.47;;;3.63;;
18290;SDS011;9271;48.590;8.866;2023-06-14T08:20:52;3.87;;;3.27;;
18290;SDS011;9271;48.590;8.866;2023-06-14T08:23:19;5.38;;;3.50;;
18290;SDS011;9271;48.590;8.866;2023-06-14T08:25:46;10.35;;;4.20;;
18290;SDS011;9271;48.590;8.866;2023-06-14T08:28:13;7.20;;;3.90;;
18290;SDS011;9271;48.590;8.866;2023-06-14T08:30:40;5.70;;;3.63;;
18290;SDS011;9271;48.590;8.866;2023-06-14T08:33:09;5.15;;;3.45;;
18290;SDS011;9271;48.590;8.866;2023-06-14T08:35:36;4.65;;;3.30;;
18290;SDS011;9271;48.590;8.866;2023-06-14T08:38:04;6.45;;;3.50;;
18290;SDS011;9271;48.590;8.866;2023-06-14T08:40:31;4.90;;;3.65;;
18290;SDS011;9271;48.590;8.866;2023-06-14T08:43:02;5.65;;;3.10;;
18290;SDS011;9271;48.590;8.866;2023-06-14T08:45:29;3.22;;;3.03;;
18290;SDS011;9271;48.590;8.866;2023-06-14T08:47:56;3.58;;;3.03;;
18290;SDS011;9271;48.590;8.866;2023-06-14T08:50:26;6.82;;;3.67;;
18290;SDS011;9271;48.590;8.866;2023-06-14T08:52:55;5.70;;;3.60;;
18290;SDS011;9271;48.590;8.866;2023-06-14T08:55:25;3.75;;;3.20;;
18290;SDS011;9271;48.590;8.866;2023-06-14T08:57:54;3.88;;;3.58;;
18290;SDS011;9271;48.590;8.866;2023-06-14T09:00:22;4.57;;;3.42;;
18290;SDS011;9271;48.590;8.866;2023-06-14T09:02:50;5.93;;;3.85;;
18290;SDS011;9271;48.590;8.866;2023-06-14T09:05:22;7.25;;;3.50;;
18290;SDS011;9271;48.590;8.866;2023-06-14T09:07:51;7.30;;;3.60;;
18290;SDS011;9271;48.590;8.866;2023-06-14T09:10:20;6.75;;;3.50;;
18290;SDS011;9271;48.590;8.866;2023-06-14T09:12:47;5.68;;;3.55;;
18290;SDS011;9271;48.590;8.866;2023-06-14T09:15:14;7.07;;;3.38;;
18290;SDS011;9271;48.590;8.866;2023-06-14T09:17:40;5.90;;;3.28;;
18290;SDS011;9271;48.590;8.866;2023-06-14T09:20:08;5.28;;;3.25;;
18290;SDS011;9271;48.590;8.866;2023-06-14T09:22:35;6.68;;;3.40;;
18290;SDS011;9271;48.590;8.866;2023-06-14T09:25:04;3.40;;;3.10;;
18290;SDS011;9271;48.590;8.866;2023-06-14T09:27:32;11.23;;;4.10;;
18290;SDS011;9271;48.590;8.866;2023-06-14T09:30:00;4.53;;;3.38;;
18290;SDS011;9271;48.590;8.866;2023-06-14T09:32:28;9.27;;;3.70;;
18290;SDS011;9271;48.590;8.866;2023-06-14T09:34:55;7.40;;;3.70;;
18290;SDS011;9271;48.590;8.866;2023-06-14T09:37:26;3.67;;;3.30;;
18290;SDS011;9271;48.590;8.866;2023-06-14T09:39:54;4.15;;;3.42;;
18290;SDS011;9271;48.590;8.866;2023-06-14T09:42:22;4.95;;;3.58;;
18290;SDS011;9271;48.590;8.866;2023-06-14T09:44:51;5.07;;;3.30;;
18290;SDS011;9271;48.590;8.866;2023-06-14T09:47:18;4.82;;;3.22;;
18290;SDS011;9271;48.590;8.866;2023-06-14T09:49:46;6.90;;;3.30;;
18290;SDS011;9271;48.590;8.866;2023-06-14T09:52:14;3.47;;;3.20;;
18290;SDS011;9271;48.590;8.866;2023-06-14T09:54:42;5.07;;;3.33;;
18290;SDS011;9271;48.590;8.866;2023-06-14T09:57:11;8.85;;;3.20;;
18290;SDS011;9271;48.590;8.866;2023-06-14T09:59:41;4.75;;;3.40;;
18290;SDS011;9271;48.590;8.866;2023-06-14T10:02:10;5.82;;;2.90;;
18290;SDS011;9271;48.590;8.866;2023-06-14T10:04:46;6.25;;;3.40;;
18290;SDS011;9271;48.590;8.866;2023-06-14T10:07:19;5.25;;;3.15;;
18290;SDS011;9271;48.590;8.866;2023-06-14T10:09:48;5.05;;;3.22;;
18290;SDS011;9271;48.590;8.866;2023-06-14T10:12:16;7.75;;;3.58;;
18290;SDS011;9271;48.590;8.866;2023-06-14T10:14:47;7.60;;;3.70;;
18290;SDS011;9271;48.590;8.866;2023-06-14T10:17:17;4.00;;;3.53;;
18290;SDS011;9271;48.590;8.866;2023-06-14T10:19:54;5.30;;;3.60;;
18290;SDS011;9271;48.590;8.866;2023-06-14T10:22:25;6.18;;;3.80;;
18290;SDS011;9271;48.590;8.866;2023-06-14T10:24:59;5.25;;;3.72;;
18290;SDS011;9271;48.590;8.866;2023-06-14T10:27:26;7.35;;;3.70;;
18290;SDS011;9271;48.590;8.866;2023-06-14T10:30:03;6.43;;;3.60;;
18290;SDS011;9271;48.590;8.866;2023-06-14T10:32:31;5.50;;;3.55;;
18290;SDS011;9271;48.590;8.866;2023-06-14T10:34:59;7.38;;;3.40;;
18290;SDS011;9271;48.590;8.866;2023-06-14T10:37:26;3.45;;;3.15;;
18290;SDS011;9271;48.590;8.866;2023-06-14T10:39:53;5.07;;;3.50;;
18290;SDS011;9271;48.590;8.866;2023-06-14T10:42:20;7.88;;;3.75;;
18290;SDS011;9271;48.590;8.866;2023-06-14T10:44:49;3.90;;;3.50;;
18290;SDS011;9271;48.590;8.866;2023-06-14T10:50:03;3.55;;;3.20;;
18290;SDS011;9271;48.590;8.866;2023-06-14T10:52:33;5.47;;;3.75;;
18290;SDS011;9271;48.590;8.866;2023-06-14T10:55:07;4.72;;;3.40;;
18290;SDS011;9271;48.590;8.866;2023-06-14T10:57:37;6.95;;;3.60;;
18290;SDS011;9271;48.590;8.866;2023-06-14T11:00:05;5.10;;;3.28;;
18290;SDS011;9271;48.590;8.866;2023-06-14T11:05:55;7.47;;;3.00;;
18290;SDS011;9271;48.590;8.866;2023-06-14T11:08:27;5.90;;;3.55;;
18290;SDS011;9271;48.590;8.866;2023-06-14T11:11:07;3.58;;;3.25;;
18290;SDS011;9271;48.590;8.866;2023-06-14T11:13:34;5.72;;;3.20;;
18290;SDS011;9271;48.590;8.866;2023-06-14T11:16:09;4.63;;;3.17;;
18290;SDS011;9271;48.590;8.866;2023-06-14T11:18:37;3.67;;;3.38;;
18290;SDS011;9271;48.590;8.866;2023-06-14T11:21:05;8.35;;;3.30;;
18290;SDS011;9271;48.590;8.866;2023-06-14T11:23:31;5.50;;;3.03;;
18290;SDS011;9271;48.590;8.866;2023-06-14T11:25:58;9.20;;;3.15;;
18290;SDS011;9271;48.590;8.866;2023-06-14T11:28:30;4.38;;;2.88;;
18290;SDS011;9271;48.590;8.866;2023-06-14T11:31:01;4.78;;;2.97;;
18290;SDS011;9271;48.590;8.866;2023-06-14T11:33:29;3.58;;;3.25;;
18290;SDS011;9271;48.590;8.866;2023-06-14T11:35:56;4.78;;;3.30;;
18290;SDS011;9271;48.590;8.866;2023-06-14T11:38:24;4.80;;;3.10;;
18290;SDS011;9271;48.590;8.866;2023-06-14T11:40:51;4.63;;;2.63;;
18290;SDS011;9271;48.590;8.866;2023-06-14T11:43:17;5.25;;;3.08;;
18290;SDS011;9271;48.590;8.866;2023-06-14T11:45:47;3.00;;;2.60;;
18290;SDS011;9271;48.590;8.866;2023-06-14T11:48:15;3.42;;;2.92;;
18290;SDS011;9271;48.590;8.866;2023-06-14T11:50:41;4.60;;;3.00;;
18290;SDS011;9271;48.590;8.866;2023-06-14T11:53:08;5.18;;;3.20;;
18290;SDS011;9271;48.590;8.866;2023-06-14T11:55:37;4.63;;;2.70;;
18290;SDS011;9271;48.590;8.866;2023-06-14T11:58:05;3.10;;;2.90;;
18290;SDS011;9271;48.590;8.866;2023-06-14T12:00:35;5.25;;;3.00;;
18290;SDS011;9271;48.590;8.866;2023-06-14T12:03:02;5.30;;;3.10;;
18290;SDS011;9271;48.590;8.866;2023-06-14T12:05:29;3.95;;;2.78;;
18290;SDS011;9271;48.590;8.866;2023-06-14T12:07:57;4.50;;;2.85;;
18290;SDS011;9271;48.590;8.866;2023-06-14T12:10:25;5.60;;;2.75;;
18290;SDS011;9271;48.590;8.866;2023-06-14T12:12:56;3.40;;;3.10;;
18290;SDS011;9271;48.590;8.866;2023-06-14T12:15:23;5.15;;;2.80;;
18290;SDS011;9271;48.590;8.866;2023-06-14T12:17:50;7.75;;;2.90;;
18290;SDS011;9271;48.590;8.866;2023-06-14T12:20:17;3.13;;;2.83;;
18290;SDS011;9271;48.590;8.866;2023-06-14T12:22:47;8.48;;;3.08;;
18290;SDS011;9271;48.590;8.866;2023-06-14T12:25:23;3.08;;;2.88;;
18290;SDS011;9271;48.590;8.866;2023-06-14T12:27:54;5.18;;;3.30;;
18290;SDS011;9271;48.590;8.866;2023-06-14T12:30:21;4.90;;;3.00;;
18290;SDS011;9271;48.590;8.866;2023-06-14T12:32:47;3.00;;;2.80;;
18290;SDS011;9271;48.590;8.866;2023-06-14T12:35:16;5.93;;;3.20;;
18290;SDS011;9271;48.590;8.866;2023-06-14T12:37:43;4.13;;;3.33;;
18290;SDS011;9271;48.590;8.866;2023-06-14T12:40:11;7.45;;;3.58;;
18290;SDS011;9271;48.590;8.866;2023-06-14T12:42:38;4.47;;;3.20;;
18290;SDS011;9271;48.590;8.866;2023-06-14T12:45:06;3.53;;;2.95;;
18290;SDS011;9271;48.590;8.866;2023-06-14T12:47:33;5.53;;;3.00;;
18290;SDS011;9271;48.590;8.866;2023-06-14T12:50:00;6.03;;;3.20;;
18290;SDS011;9271;48.590;8.866;2023-06-14T12:52:27;5.88;;;3.20;;
18290;SDS011;9271;48.590;8.866;2023-06-14T12:54:54;9.02;;;3.25;;
18290;SDS011;9271;48.590;8.866;2023-06-14T12:57:20;3.33;;;3.03;;
18290;SDS011;9271;48.590;8.866;2023-06-14T12:59:47;5.63;;;3.05;;
18290;SDS011;9271;48.590;8.866;2023-06-14T13:02:15;3.28;;;2.90;;
18290;SDS011;9271;48.590;8.866;2023-06-14T13:04:43;4.55;;;3.10;;
18290;SDS011;9271;48.590;8.866;2023-06-14T13:07:10;6.80;;;4.07;;
18290;SDS011;9271;48.590;8.866;2023-06-14T13:09:37;5.82;;;3.45;;
18290;SDS011;9271;48.590;8.866;2023-06-14T13:12:04;3.92;;;3.03;;
18290;SDS011;9271;48.590;8.866;2023-06-14T13:14:31;7.88;;;3.08;;
18290;SDS011;9271;48.590;8.866;2023-06-14T13:16:58;10.27;;;3.47;;
18290;SDS011;9271;48.590;8.866;2023-06-14T13:19:26;3.28;;;2.97;;
18290;SDS011;9271;48.590;8.866;2023-06-14T13:21:53;5.13;;;3.00;;
18290;SDS011;9271;48.590;8.866;2023-06-14T13:24:19;4.78;;;2.80;;
18290;SDS011;9271;48.590;8.866;2023-06-14T13:26:46;6.63;;;3.45;;
18290;SDS011;9271;48.590;8.866;2023-06-14T13:29:13;5.80;;;3.00;;
18290;SDS011;9271;48.590;8.866;2023-06-14T13:31:39;3.75;;;2.90;;
18290;SDS011;9271;48.590;8.866;2023-06-14T13:34:06;6.78;;;3.00;;
18290;SDS011;9271;48.590;8.866;2023-06-14T13:36:34;3.05;;;2.85;;
18290;SDS011;9271;48.590;8.866;2023-06-14T13:39:00;3.40;;;2.90;;
18290;SDS011;9271;48.590;8.866;2023-06-14T13:41:28;7.90;;;3.30;;
18290;SDS011;9271;48.590;8.866;2023-06-14T13:43:56;6.78;;;3.28;;
18290;SDS011;9271;48.590;8.866;2023-06-14T13:46:24;3.35;;;3.05;;
18290;SDS011;9271;48.590;8.866;2023-06-14T13:48:51;3.28;;;2.97;;
18290;SDS011;9271;48.590;8.866;2023-06-14T13:51:18;3.10;;;2.80;;
18290;SDS011;9271;48.590;8.866;2023-06-14T13:53:47;3.95;;;3.10;;
18290;SDS011;9271;48.590;8.866;2023-06-14T13:56:14;5.97;;;2.97;;
18290;SDS011;9271;48.590;8.866;2023-06-14T13:58:41;3.17;;;2.85;;
18290;SDS011;9271;48.590;8.866;2023-06-14T14:01:08;3.47;;;3.17;;
18290;SDS011;9271;48.590;8.866;2023-06-14T14:03:35;5.20;;;2.95;;
18290;SDS011;9271;48.590;8.866;2023-06-14T14:06:01;3.03;;;2.60;;
18290;SDS011;9271;48.590;8.866;2023-06-14T14:08:29;3.67;;;2.80;;
18290;SDS011;9271;48.590;8.866;2023-06-14T14:10:58;3.15;;;2.85;;
18290;SDS011;9271;48.590;8.866;2023-06-14T14:13:24;4.97;;;2.90;;
18290;SDS011;9271;48.590;8.866;2023-06-14T14:15:51;3.92;;;2.92;;
18290;SDS011;9271;48.590;8.866;2023-06-14T14:18:18;3.15;;;2.85;;
18290;SDS011;9271;48.590;8.866;2023-06-14T14:20:46;3.60;;;2.80;;
18290;SDS011;9271;48.590;8.866;2023-06-14T14:23:13;5.50;;;3.13;;
18290;SDS011;9271;48.590;8.866;2023-06-14T14:25:39;5.20;;;3.25;;
18290;SDS011;9271;48.590;8.866;2023-06-14T14:28:07;3.53;;;3.20;;
18290;SDS011;9271;48.590;8.866;2023-06-14T14:30:34;3.35;;;2.90;;
18290;SDS011;9271;48.590;8.866;2023-06-14T14:33:04;4.15;;;2.80;;
18290;SDS011;9271;48.590;8.866;2023-06-14T14:35:31;3.53;;;3.00;;
18290;SDS011;9271;48.590;8.866;2023-06-14T14:37:58;4.97;;;3.22;;
18290;SDS011;9271;48.590;8.866;2023-06-14T14:40:25;3.72;;;3.10;;
18290;SDS011;9271;48.590;8.866;2023-06-14T14:42:51;6.60;;;3.30;;
18290;SDS011;9271;48.590;8.866;2023-06-14T14:45:19;5.60;;;3.15;;
18290;SDS011;9271;48.590;8.866;2023-06-14T14:47:46;4.63;;;3.10;;
18290;SDS011;9271;48.590;8.866;2023-06-14T14:50:13;3.70;;;3.10;;
18290;SDS011;9271;48.590;8.866;2023-06-14T14:52:39;4.00;;;3.17;;
18290;SDS011;9271;48.590;8.866;2023-06-14T14:55:07;3.42;;;3.20;;
18290;SDS011;9271;48.590;8.866;2023-06-14T14:57:34;3.60;;;3.25;;
18290;SDS011;9271;48.590;8.866;2023-06-14T15:00:01;8.10;;;3.03;;
18290;SDS011;9271;48.590;8.866;2023-06-14T15:02:30;6.05;;;3.13;;
18290;SDS011;9271;48.590;8.866;2023-06-14T15:04:56;9.13;;;3.38;;
18290;SDS011;9271;48.590;8.866;2023-06-14T15:07:25;5.05;;;3.42;;
18290;SDS011;9271;48.590;8.866;2023-06-14T15:09:52;6.57;;;3.10;;